createdAt,value
2019-01-18T00:06:24.015Z,101139.95
2019-01-18T00:10:09.749Z,101138.01
2019-01-18T00:13:57.368Z,101136.76
2019-01-18T00:17:42.191Z,101141.59
2019-01-18T00:21:26.865Z,101144.64
2019-01-18T00:25:30.727Z,101155.45
2019-01-18T00:29:15.386Z,101155.45
2019-01-18T00:33:00.027Z,101166.15
2019-01-18T00:36:37.729Z,101166.70
2019-01-18T00:40:22.690Z,101176.31
2019-01-18T00:47:57.452Z,101188.16
2019-01-18T00:51:42.098Z,101196.52
2019-01-18T00:55:26.756Z,101195.79
2019-01-18T00:59:11.401Z,101207.33
2019-01-18T01:02:56.125Z,101206.25
2019-01-18T01:06:40.798Z,101211.42
2019-01-18T01:10:25.486Z,101215.41
2019-01-18T01:14:10.146Z,101220.02
2019-01-18T01:17:54.775Z,101230.84
2019-01-18T01:21:39.668Z,101234.59
2019-01-18T01:25:24.357Z,101237.95
2019-01-18T01:29:09.002Z,101245.05
2019-01-18T01:32:54.084Z,101257.58
2019-01-18T01:36:31.668Z,101261.07
2019-01-18T01:40:27.365Z,101268.14
2019-01-18T01:44:12.042Z,101276.34
2019-01-18T01:47:56.749Z,101286.23
2019-01-18T01:51:41.417Z,101291.19
2019-01-18T01:55:26.199Z,101303.86
2019-01-18T01:59:10.851Z,101311.29
2019-01-18T02:02:55.479Z,101314.45
2019-01-18T02:06:40.131Z,101324.71
2019-01-18T02:10:24.832Z,101327.75
2019-01-18T02:14:09.471Z,101336.59
2019-01-18T02:17:54.224Z,101339.67
2019-01-18T02:21:41.865Z,101345.58
2019-01-18T02:25:26.536Z,101354.50
2019-01-18T02:29:11.148Z,101359.84
2019-01-18T02:32:55.917Z,101367.84
2019-01-18T02:36:33.071Z,101374.08
2019-01-18T02:40:17.698Z,101380.89
2019-01-18T02:47:52.437Z,101387.05
2019-01-18T02:51:37.369Z,101394.30
2019-01-18T02:55:28.555Z,101396.90
2019-01-18T02:59:08.326Z,101394.16
2019-01-18T03:02:53.070Z,101402.02
2019-01-18T03:06:37.718Z,101405.90
2019-01-18T03:10:41.591Z,101409.08
2019-01-18T03:14:07.199Z,101417.58
2019-01-18T03:17:32.813Z,101419.82
2019-01-18T03:20:58.417Z,101426.30
2019-01-18T03:24:24.381Z,101430.07
2019-01-18T03:27:50.063Z,101433.01
2019-01-18T03:31:15.655Z,101437.62
2019-01-18T03:34:41.294Z,101444.25
2019-01-18T03:38:06.963Z,101457.54
2019-01-18T03:41:32.647Z,101457.77
2019-01-18T03:44:58.188Z,101467.94
2019-01-18T03:48:23.776Z,101471.82
2019-01-18T03:51:49.364Z,101473.95
2019-01-18T03:55:14.964Z,101483.97
2019-01-18T03:58:40.606Z,101488.95
2019-01-18T04:02:06.944Z,101498.09
2019-01-18T04:05:32.614Z,101495.13
2019-01-18T04:08:58.205Z,101498.30
2019-01-18T04:12:23.824Z,101506.29
2019-01-18T04:15:49.441Z,101507.23
2019-01-18T04:19:16.590Z,101507.92
2019-01-18T04:22:42.205Z,101515.25
2019-01-18T04:26:07.753Z,101515.25
2019-01-18T04:29:33.322Z,101527.80
2019-01-18T04:32:58.882Z,101527.36
2019-01-18T04:36:24.540Z,101524.53
2019-01-18T04:39:50.553Z,101527.47
2019-01-18T04:43:16.253Z,101527.55
2019-01-18T04:46:42.431Z,101532.02
2019-01-18T04:50:12.504Z,101528.18
2019-01-18T04:53:38.119Z,101529.38
2019-01-18T04:57:03.717Z,101532.03
2019-01-18T05:00:31.515Z,101540.59
2019-01-18T05:03:58.778Z,101534.34
2019-01-18T05:07:25.185Z,101550.71
2019-01-18T05:10:50.802Z,101554.27
2019-01-18T05:14:16.469Z,101552.59
2019-01-18T05:17:48.189Z,101556.09
2019-01-18T05:21:13.787Z,101560.24
2019-01-18T05:24:39.391Z,101567.59
2019-01-18T05:28:13.969Z,101565.69
2019-01-18T05:31:39.580Z,101569.48
2019-01-18T05:35:06.016Z,101579.67
2019-01-18T05:38:31.639Z,101588.28
2019-01-18T05:41:57.288Z,101592.73
2019-01-18T05:45:23.622Z,101588.45
2019-01-18T05:48:49.318Z,101590.03
2019-01-18T05:52:14.897Z,101594.95
2019-01-18T05:55:40.476Z,101600.16
2019-01-18T05:59:06.416Z,101621.13
2019-01-18T06:02:32.031Z,101622.03
2019-01-18T06:05:57.689Z,101631.83
2019-01-18T06:09:24.342Z,101632.81
2019-01-18T06:12:50.790Z,101634.71
2019-01-18T06:16:16.772Z,101637.36
2019-01-18T06:19:42.498Z,101641.75
2019-01-18T06:23:09.175Z,101645.34
2019-01-18T06:26:34.906Z,101645.39
2019-01-18T06:30:00.697Z,101649.86
2019-01-18T06:33:29.959Z,101648.09
2019-01-18T06:41:27.359Z,101652.84
2019-01-18T06:45:00.895Z,101655.88
2019-01-18T06:48:35.733Z,101666.98
2019-01-18T06:52:01.399Z,101676.26
2019-01-18T06:55:27.030Z,101689.44
2019-01-18T06:58:52.626Z,101691.65
2019-01-18T07:02:18.333Z,101697.45
2019-01-18T07:05:43.883Z,101707.58
2019-01-18T07:09:10.852Z,101702.41
2019-01-18T07:12:36.506Z,101706.97
2019-01-18T07:16:02.487Z,101708.73
2019-01-18T07:19:28.610Z,101710.02
2019-01-18T07:22:54.296Z,101708.55
2019-01-18T07:26:20.266Z,101710.24
2019-01-18T07:29:46.278Z,101705.67
2019-01-18T07:33:17.379Z,101710.23
2019-01-18T07:36:43.041Z,101709.84
2019-01-18T07:40:09.229Z,101707.72
2019-01-18T07:43:34.888Z,101720.14
2019-01-18T07:47:00.464Z,101728.58
2019-01-18T07:50:26.409Z,101730.30
2019-01-18T07:53:52.363Z,101729.87
2019-01-18T07:57:17.939Z,101730.72
2019-01-18T08:00:43.611Z,101734.29
2019-01-18T08:04:17.378Z,101739.06
2019-01-18T08:07:52.935Z,101749.27
2019-01-18T08:11:19.825Z,101756.30
2019-01-18T08:14:45.478Z,101755.89
2019-01-18T08:18:12.132Z,101761.58
2019-01-18T08:21:38.019Z,101762.42
2019-01-18T08:25:03.842Z,101764.52
2019-01-18T08:28:29.895Z,101764.94
2019-01-18T08:31:55.534Z,101768.88
2019-01-18T08:35:22.638Z,101768.83
2019-01-18T08:38:48.280Z,101777.42
2019-01-18T08:42:13.900Z,101784.41
2019-01-18T08:45:56.348Z,101785.81
2019-01-18T08:49:21.999Z,101791.28
2019-01-18T08:52:47.680Z,101785.72
2019-01-18T08:56:13.860Z,101787.02
2019-01-18T08:59:39.510Z,101792.89
2019-01-18T09:03:05.605Z,101799.17
2019-01-18T09:06:31.267Z,101804.20
2019-01-18T09:09:56.952Z,101803.41
2019-01-18T09:13:22.604Z,101809.55
2019-01-18T09:16:48.291Z,101812.87
2019-01-18T09:20:20.557Z,101820.09
2019-01-18T09:23:46.179Z,101823.52
2019-01-18T09:27:12.605Z,101824.52
2019-01-18T09:30:38.328Z,101830.36
2019-01-18T09:34:03.983Z,101833.88
2019-01-18T09:37:29.980Z,101845.13
2019-01-18T09:40:55.671Z,101839.89
2019-01-18T09:44:21.302Z,101840.89
2019-01-18T09:47:46.887Z,101846.50
2019-01-18T09:51:12.593Z,101847.94
2019-01-18T09:54:38.200Z,101859.78
2019-01-18T09:58:04.160Z,101866.91
2019-01-18T10:01:29.798Z,101869.97
2019-01-18T10:04:55.381Z,101871.09
2019-01-18T10:08:21.028Z,101874.39
2019-01-18T10:11:46.779Z,101879.49
2019-01-18T10:15:25.638Z,101880.87
2019-01-18T10:18:51.304Z,101879.53
2019-01-18T10:22:16.908Z,101883.31
2019-01-18T10:25:42.521Z,101878.55
2019-01-18T10:29:08.153Z,101880.37
2019-01-18T10:32:33.767Z,101887.09
2019-01-18T10:35:59.384Z,101889.65
2019-01-18T10:39:28.222Z,101886.77
2019-01-18T10:42:53.797Z,101888.05
2019-01-18T10:46:19.416Z,101893.03
2019-01-18T10:49:45.697Z,101891.30
2019-01-18T10:53:11.623Z,101896.86
2019-01-18T10:56:37.349Z,101893.64
2019-01-18T11:00:04.543Z,101893.64
2019-01-18T11:03:30.178Z,101890.42
2019-01-18T11:06:56.078Z,101894.37
2019-01-18T11:10:21.767Z,101879.95
2019-01-18T11:13:47.346Z,101883.05
2019-01-18T11:17:12.947Z,101881.88
2019-01-18T11:20:47.140Z,101874.05
2019-01-18T11:24:12.761Z,101871.98
2019-01-18T11:27:38.325Z,101870.66
2019-01-18T11:31:03.905Z,101870.92
2019-01-18T11:34:29.514Z,101862.33
2019-01-18T11:37:55.161Z,101849.41
2019-01-18T11:41:20.843Z,101855.81
2019-01-18T11:44:46.470Z,101851.52
2019-01-18T11:48:12.207Z,101859.52
2019-01-18T11:51:37.816Z,101848.09
2019-01-18T11:55:03.422Z,101853.08
2019-01-18T11:58:29.075Z,101852.94
2019-01-18T12:01:57.905Z,101851.63
2019-01-18T12:05:23.756Z,101845.41
2019-01-18T12:08:49.407Z,101843.45
2019-01-18T12:12:15.217Z,101846.91
2019-01-18T12:15:41.095Z,101846.91
2019-01-18T12:19:06.681Z,101849.75
2019-01-18T12:22:32.320Z,101845.00
2019-01-18T12:25:57.888Z,101846.86
2019-01-18T12:29:23.516Z,101841.42
2019-01-18T12:32:49.411Z,101838.31
2019-01-18T12:36:17.312Z,101838.23
2019-01-18T12:39:42.909Z,101821.84
2019-01-18T12:43:08.615Z,101828.62
2019-01-18T12:46:34.173Z,101819.82
2019-01-18T12:49:59.788Z,101825.28
2019-01-18T12:53:25.340Z,101819.14
2019-01-18T12:56:51.331Z,101816.70
2019-01-18T13:00:19.645Z,101819.47
2019-01-18T13:03:45.266Z,101816.13
2019-01-18T13:07:10.863Z,101819.80
2019-01-18T13:10:36.484Z,101815.44
2019-01-18T13:14:02.378Z,101811.44
2019-01-18T13:17:28.574Z,101809.53
2019-01-18T13:20:54.252Z,101802.94
2019-01-18T13:24:20.013Z,101800.25
2019-01-18T13:27:45.757Z,101799.10
2019-01-18T13:31:11.343Z,101797.80
2019-01-18T13:34:37.025Z,101797.78
2019-01-18T13:38:02.648Z,101797.52
2019-01-18T13:41:28.856Z,101805.56
2019-01-18T13:44:54.491Z,101802.29
2019-01-18T13:48:20.077Z,101803.47
2019-01-18T13:51:46.327Z,101811.70
2019-01-18T13:55:19.878Z,101809.28
2019-01-18T13:58:45.879Z,101813.66
2019-01-18T14:02:11.652Z,101816.19
2019-01-18T14:05:37.370Z,101819.51
2019-01-18T14:09:03.296Z,101819.93
2019-01-18T14:12:28.888Z,101817.37
2019-01-18T14:15:54.536Z,101814.03
2019-01-18T14:19:20.439Z,101814.21
2019-01-18T14:22:46.350Z,101814.38
2019-01-18T14:26:12.979Z,101817.44
2019-01-18T14:29:38.688Z,101823.63
2019-01-18T14:33:04.351Z,101824.95
2019-01-18T14:36:30.328Z,101826.14
2019-01-18T14:39:55.997Z,101829.00
2019-01-18T14:43:21.964Z,101822.73
2019-01-18T14:46:51.773Z,101816.70
2019-01-18T14:50:19.601Z,101813.80
2019-01-18T14:53:45.238Z,101817.97
2019-01-18T15:00:42.324Z,101811.05
2019-01-18T15:04:08.288Z,101815.10
2019-01-18T15:07:34.262Z,101814.64
2019-01-18T15:10:59.868Z,101818.59
2019-01-18T15:14:25.500Z,101814.84
2019-01-18T15:17:51.370Z,101816.44
2019-01-18T15:21:17.020Z,101815.91
2019-01-18T15:24:42.620Z,101813.05
2019-01-18T15:28:11.534Z,101811.56
2019-01-18T15:31:43.220Z,101805.55
2019-01-18T15:35:12.277Z,101810.92
2019-01-18T15:38:37.900Z,101807.10
2019-01-18T15:42:03.487Z,101807.03
2019-01-18T15:45:29.378Z,101807.73
2019-01-18T15:48:54.994Z,101802.58
2019-01-18T15:52:20.595Z,101803.70
2019-01-18T15:55:46.310Z,101806.20
2019-01-18T15:59:11.942Z,101804.97
2019-01-18T16:02:37.491Z,101805.55
2019-01-18T16:06:03.065Z,101802.57
2019-01-18T16:09:29.124Z,101794.81
2019-01-18T16:12:54.962Z,101798.02
2019-01-18T16:16:30.371Z,101804.02
2019-01-18T16:19:55.991Z,101798.66
2019-01-18T16:23:21.674Z,101797.52
2019-01-18T16:26:47.330Z,101797.52
2019-01-18T16:30:16.497Z,101800.15
2019-01-18T16:33:42.050Z,101795.09
2019-01-18T16:37:07.682Z,101795.55
2019-01-18T16:40:34.860Z,101795.94
2019-01-18T16:44:00.760Z,101788.27
2019-01-18T16:47:26.353Z,101795.13
2019-01-18T16:50:51.983Z,101793.19
2019-01-18T16:54:17.727Z,101792.80
2019-01-18T16:57:43.390Z,101796.22
2019-01-18T17:01:10.716Z,101796.20
2019-01-18T17:04:36.401Z,101794.55
2019-01-18T17:08:02.073Z,101800.12
2019-01-18T17:11:27.724Z,101794.03
2019-01-18T17:14:53.319Z,101788.64
2019-01-18T17:18:20.330Z,101791.02
2019-01-18T17:21:46.111Z,101788.22
2019-01-18T17:25:11.958Z,101785.78
2019-01-18T17:28:37.670Z,101790.01
2019-01-18T17:32:03.228Z,101789.72
2019-01-18T17:35:46.939Z,101790.42
2019-01-18T17:40:16.397Z,101791.86
2019-01-18T17:44:53.787Z,101787.89
2019-01-18T17:49:31.027Z,101796.79
2019-01-18T17:53:43.433Z,101791.76
2019-01-18T17:58:42.220Z,101792.22
2019-01-18T18:03:04.709Z,101790.69
2019-01-18T18:07:36.609Z,101785.03
2019-01-18T18:11:50.219Z,101792.47
2019-01-18T18:16:22.611Z,101795.42
2019-01-18T18:20:57.038Z,101794.41
2019-01-18T18:25:00.264Z,101788.38
2019-01-18T18:29:22.753Z,101787.45
2019-01-18T18:33:55.823Z,101790.02
2019-01-18T18:38:49.182Z,101791.62
2019-01-18T18:42:54.837Z,101792.53
2019-01-18T18:47:02.410Z,101789.38
2019-01-18T18:51:08.879Z,101791.21
2019-01-18T18:55:32.142Z,101784.27
2019-01-18T19:00:06.632Z,101784.84
2019-01-18T19:04:43.333Z,101784.81
2019-01-18T19:09:05.690Z,101787.75
2019-01-18T19:13:25.318Z,101789.02
2019-01-18T19:17:36.268Z,101785.84
2019-01-18T19:22:08.435Z,101774.33
2019-01-18T19:26:49.398Z,101773.52
2019-01-18T19:30:58.867Z,101778.64
2019-01-18T19:35:32.742Z,101771.92
2019-01-18T19:39:47.475Z,101772.35
2019-01-18T19:44:09.350Z,101767.70
2019-01-18T19:48:09.989Z,101765.34
2019-01-18T19:52:26.361Z,101762.70
2019-01-18T19:56:52.664Z,101761.54
2019-01-18T20:01:02.900Z,101756.25
2019-01-18T20:05:22.826Z,101758.91
2019-01-18T20:09:26.603Z,101756.54
2019-01-18T20:13:35.168Z,101755.56
2019-01-18T20:17:49.661Z,101753.35
2019-01-18T20:22:12.815Z,101755.45
2019-01-18T20:26:00.047Z,101747.81
2019-01-18T20:30:12.649Z,101761.89
2019-01-18T20:34:01.414Z,101754.50
2019-01-18T20:38:09.514Z,101757.58
2019-01-18T20:42:22.337Z,101756.19
2019-01-18T20:46:47.171Z,101755.30
2019-01-18T20:51:20.089Z,101756.67
2019-01-18T20:55:50.142Z,101754.27
2019-01-18T20:59:44.101Z,101755.77
2019-01-18T21:03:53.270Z,101758.06
2019-01-18T21:08:10.822Z,101752.23
2019-01-18T21:12:26.477Z,101749.53
2019-01-18T21:16:59.195Z,101758.36
2019-01-18T21:21:38.128Z,101754.14
2019-01-18T21:25:49.790Z,101754.36
2019-01-18T21:29:55.835Z,101759.27
2019-01-18T21:34:10.506Z,101753.77
2019-01-18T21:39:12.594Z,101752.26
2019-01-18T21:43:31.365Z,101755.51
2019-01-18T21:47:53.733Z,101746.64
2019-01-18T21:51:49.899Z,101753.62
2019-01-18T21:56:22.137Z,101757.48
2019-01-18T22:00:36.078Z,101754.50
2019-01-18T22:05:01.837Z,101763.56
2019-01-18T22:09:19.021Z,101753.62
2019-01-18T22:13:26.745Z,101751.69
2019-01-18T22:17:35.727Z,101749.48
2019-01-18T22:22:16.279Z,101752.66
2019-01-18T22:26:46.903Z,101753.05
2019-01-18T22:31:12.622Z,101753.65
2019-01-18T22:35:49.681Z,101762.23
2019-01-18T22:40:42.565Z,101760.66
2019-01-18T22:45:12.744Z,101762.78
2019-01-18T22:49:47.818Z,101765.86
2019-01-18T22:54:29.757Z,101764.11
2019-01-18T22:58:43.257Z,101767.47
2019-01-18T23:03:00.876Z,101759.25
2019-01-18T23:07:11.824Z,101755.18
2019-01-18T23:11:27.917Z,101755.95
2019-01-18T23:15:48.281Z,101756.13
2019-01-18T23:20:39.235Z,101756.28
2019-01-18T23:24:44.872Z,101754.66
2019-01-18T23:28:58.452Z,101759.70
2019-01-18T23:33:33.747Z,101749.83
2019-01-18T23:37:49.663Z,101758.22
2019-01-18T23:42:20.408Z,101754.59
2019-01-18T23:46:53.675Z,101753.91
2019-01-18T23:50:41.048Z,101748.57
2019-01-18T23:54:38.513Z,101750.88
2019-01-18T23:58:54.818Z,101746.06
